createdAt,value
2022-08-14T00:00:17.778Z,2.20
2022-08-14T00:02:53.674Z,2.30
2022-08-14T00:05:26.386Z,2.20
2022-08-14T00:10:51.220Z,2.40
2022-08-14T00:13:29.175Z,2.20
2022-08-14T00:16:05.052Z,2.03
2022-08-14T00:19:18.707Z,2.38
2022-08-14T00:21:36.821Z,2.15
2022-08-14T00:24:09.741Z,2.33
2022-08-14T00:29:16.313Z,2.55
2022-08-14T00:34:37.789Z,2.28
2022-08-14T00:37:19.982Z,2.30
2022-08-14T00:39:53.021Z,2.63
2022-08-14T00:42:55.600Z,2.60
2022-08-14T00:45:19.308Z,2.30
2022-08-14T00:47:55.103Z,2.47
2022-08-14T00:50:32.036Z,2.30
2022-08-14T00:53:10.490Z,2.42
2022-08-14T00:55:44.141Z,2.55
2022-08-14T00:58:32.459Z,2.50
2022-08-14T01:01:09.167Z,2.47
2022-08-14T01:03:44.715Z,2.40
2022-08-14T01:06:19.472Z,2.50
2022-08-14T01:08:59.203Z,2.25
2022-08-14T01:11:36.142Z,2.30
2022-08-14T01:14:25.367Z,2.50
2022-08-14T01:17:01.121Z,2.17
2022-08-14T01:19:53.779Z,2.53
2022-08-14T01:22:29.555Z,2.10
2022-08-14T01:25:02.429Z,2.40
2022-08-14T01:27:36.680Z,2.08
2022-08-14T01:30:36.557Z,2.05
2022-08-14T01:33:13.433Z,2.10
2022-08-14T01:36:04.561Z,2.30
2022-08-14T01:38:44.263Z,2.25
2022-08-14T01:41:29.968Z,2.22
2022-08-14T01:44:07.824Z,2.47
2022-08-14T01:47:05.977Z,2.08
2022-08-14T01:49:46.044Z,1.95
2022-08-14T01:52:59.644Z,2.10
2022-08-14T01:55:32.282Z,2.17
2022-08-14T01:58:20.046Z,2.20
2022-08-14T02:00:56.390Z,2.10
2022-08-14T02:03:31.365Z,2.00
2022-08-14T02:06:33.054Z,2.15
2022-08-14T02:08:58.091Z,1.55
2022-08-14T02:11:34.264Z,2.78
2022-08-14T02:14:10.149Z,2.25
2022-08-14T02:16:54.862Z,1.90
2022-08-14T02:19:31.667Z,2.50
2022-08-14T02:22:06.318Z,2.22
2022-08-14T02:24:45.163Z,2.00
2022-08-14T02:28:24.233Z,2.17
2022-08-14T02:30:16.435Z,2.25
2022-08-14T02:32:50.771Z,2.63
2022-08-14T02:35:26.611Z,2.00
2022-08-14T02:38:05.863Z,2.10
2022-08-14T02:40:45.440Z,2.17
2022-08-14T02:43:22.511Z,1.80
2022-08-14T02:45:55.577Z,1.80
2022-08-14T02:49:02.102Z,1.95
2022-08-14T02:51:24.924Z,2.38
2022-08-14T02:54:03.853Z,1.73
2022-08-14T02:57:15.833Z,2.17
2022-08-14T02:59:34.567Z,2.40
2022-08-14T03:02:07.526Z,2.33
2022-08-14T03:05:00.275Z,1.80
2022-08-14T03:07:33.206Z,2.35
2022-08-14T03:13:00.609Z,2.47
2022-08-14T03:15:38.157Z,2.40
2022-08-14T03:18:12.375Z,2.78
2022-08-14T03:20:45.238Z,2.28
2022-08-14T03:23:20.100Z,2.67
2022-08-14T03:25:52.955Z,2.30
2022-08-14T03:28:29.545Z,2.60
2022-08-14T03:31:13.060Z,2.72
2022-08-14T03:33:51.831Z,2.20
2022-08-14T03:37:37.590Z,2.30
2022-08-14T03:39:22.823Z,2.70
2022-08-14T03:41:59.898Z,2.42
2022-08-14T03:45:19.032Z,2.60
2022-08-14T03:47:46.348Z,2.55
2022-08-14T03:50:27.525Z,2.38
2022-08-14T03:53:04.504Z,2.58
2022-08-14T03:55:38.877Z,2.40
2022-08-14T03:58:12.959Z,2.38
2022-08-14T04:00:56.738Z,2.65
2022-08-14T04:06:03.922Z,2.60
2022-08-14T04:08:38.354Z,2.65
2022-08-14T04:11:15.962Z,2.58
2022-08-14T04:13:50.899Z,2.67
2022-08-14T04:16:23.860Z,2.53
2022-08-14T04:19:00.023Z,2.40
2022-08-14T04:21:39.702Z,2.53
2022-08-14T04:24:26.954Z,2.63
2022-08-14T04:27:00.617Z,2.63
2022-08-14T04:33:01.887Z,2.60
2022-08-14T04:35:07.515Z,2.58
2022-08-14T04:38:01.015Z,2.92
2022-08-14T04:40:58.282Z,2.83
2022-08-14T04:43:39.259Z,2.85
2022-08-14T04:46:55.687Z,2.45
2022-08-14T04:49:08.082Z,2.92
2022-08-14T04:51:55.489Z,2.67
2022-08-14T04:54:28.951Z,2.85
2022-08-14T04:57:01.691Z,2.97
2022-08-14T04:59:35.359Z,2.60
2022-08-14T05:02:08.536Z,2.72
2022-08-14T05:07:54.737Z,2.67
2022-08-14T05:10:26.282Z,3.30
2022-08-14T05:13:14.415Z,2.58
2022-08-14T05:19:17.170Z,2.90
2022-08-14T05:21:59.373Z,2.97
2022-08-14T05:26:51.882Z,3.25
2022-08-14T05:29:28.353Z,2.78
2022-08-14T05:32:06.369Z,3.28
2022-08-14T05:34:39.189Z,3.25
2022-08-14T05:37:12.760Z,3.28
2022-08-14T05:39:50.172Z,3.25
2022-08-14T05:42:29.413Z,3.50
2022-08-14T05:45:11.228Z,3.30
2022-08-14T05:47:46.151Z,3.40
2022-08-14T05:50:23.632Z,3.45
2022-08-14T05:52:56.573Z,3.47
2022-08-14T05:58:06.913Z,3.40
2022-08-14T06:00:44.947Z,3.22
2022-08-14T06:03:19.961Z,3.95
2022-08-14T06:05:54.877Z,3.85
2022-08-14T06:08:35.639Z,3.90
2022-08-14T06:11:20.349Z,3.50
2022-08-14T06:14:03.673Z,3.72
2022-08-14T06:16:39.457Z,3.58
2022-08-14T06:19:14.624Z,3.63
2022-08-14T06:21:58.490Z,3.67
2022-08-14T06:24:35.677Z,3.65
2022-08-14T06:27:10.764Z,4.13
2022-08-14T06:29:43.701Z,3.70
2022-08-14T06:32:37.549Z,4.00
2022-08-14T06:35:13.639Z,3.75
2022-08-14T06:37:50.138Z,3.72
2022-08-14T06:40:27.154Z,4.10
2022-08-14T06:43:08.111Z,4.60
2022-08-14T06:45:44.185Z,4.28
2022-08-14T06:48:26.469Z,4.10
2022-08-14T06:51:00.747Z,3.95
2022-08-14T06:53:33.541Z,4.22
2022-08-14T06:58:40.248Z,4.30
2022-08-14T07:01:45.421Z,3.42
2022-08-14T07:04:36.075Z,4.22
2022-08-14T07:07:08.820Z,3.92
2022-08-14T07:09:51.143Z,4.65
2022-08-14T07:12:52.131Z,5.18
2022-08-14T07:15:19.182Z,4.47
2022-08-14T07:17:53.991Z,4.32
2022-08-14T07:20:31.193Z,5.15
2022-08-14T07:23:09.405Z,4.10
2022-08-14T07:25:45.597Z,4.45
2022-08-14T07:28:23.505Z,4.53
2022-08-14T07:31:04.579Z,4.28
2022-08-14T07:33:41.721Z,4.35
2022-08-14T07:36:27.528Z,4.30
2022-08-14T07:39:13.228Z,4.78
2022-08-14T07:44:29.363Z,4.15
2022-08-14T07:47:07.633Z,4.40
2022-08-14T07:49:42.091Z,4.20
2022-08-14T07:52:22.186Z,3.83
2022-08-14T07:55:04.773Z,4.15
2022-08-14T07:57:38.416Z,4.60
2022-08-14T08:00:31.038Z,4.10
2022-08-14T08:03:10.091Z,4.22
2022-08-14T08:05:44.007Z,3.90
2022-08-14T08:08:26.918Z,4.03
2022-08-14T08:11:03.716Z,3.83
2022-08-14T08:13:49.106Z,3.85
2022-08-14T08:16:29.546Z,3.50
2022-08-14T08:19:12.477Z,4.05
2022-08-14T08:21:46.889Z,3.97
2022-08-14T08:24:20.811Z,3.80
2022-08-14T08:26:53.701Z,3.90
2022-08-14T08:29:29.042Z,3.80
2022-08-14T08:32:05.993Z,3.40
2022-08-14T08:34:48.457Z,3.55
2022-08-14T08:40:02.866Z,3.10
2022-08-14T08:42:38.353Z,3.40
2022-08-14T08:45:17.389Z,3.50
2022-08-14T08:47:51.926Z,3.17
2022-08-14T08:53:05.784Z,2.92
2022-08-14T08:55:40.596Z,3.13
2022-08-14T08:58:19.993Z,4.82
2022-08-14T09:00:56.530Z,3.03
2022-08-14T09:03:32.299Z,3.33
2022-08-14T09:06:26.609Z,2.72
2022-08-14T09:08:59.393Z,3.42
2022-08-14T09:14:05.550Z,3.70
2022-08-14T09:16:38.538Z,4.47
2022-08-14T09:19:12.701Z,4.32
2022-08-14T09:21:47.347Z,4.00
2022-08-14T09:24:29.414Z,3.95
2022-08-14T09:27:06.865Z,4.53
2022-08-14T09:29:39.667Z,3.63
2022-08-14T09:32:59.402Z,3.40
2022-08-14T09:35:18.134Z,3.95
2022-08-14T09:38:06.339Z,4.15
2022-08-14T09:40:59.121Z,3.30
2022-08-14T09:43:44.426Z,3.63
2022-08-14T09:46:21.285Z,3.65
2022-08-14T09:49:02.527Z,3.75
2022-08-14T09:51:45.042Z,3.25
2022-08-14T09:54:38.638Z,3.42
2022-08-14T09:57:13.973Z,3.17
2022-08-14T09:59:50.377Z,2.92
2022-08-14T10:02:24.885Z,3.42
2022-08-14T10:05:02.840Z,3.47
2022-08-14T10:07:37.790Z,2.92
2022-08-14T10:10:23.309Z,3.35
2022-08-14T10:12:58.427Z,3.67
2022-08-14T10:15:33.218Z,2.80
2022-08-14T10:18:17.805Z,3.17
2022-08-14T10:20:58.249Z,2.85
2022-08-14T10:23:45.391Z,2.65
2022-08-14T10:26:22.692Z,2.33
2022-08-14T10:29:20.262Z,2.47
2022-08-14T10:31:59.171Z,2.50
2022-08-14T10:34:36.582Z,2.33
2022-08-14T10:37:14.563Z,2.63
2022-08-14T10:40:05.880Z,2.55
2022-08-14T10:42:46.923Z,2.75
2022-08-14T10:45:21.947Z,2.58
2022-08-14T10:48:07.711Z,2.78
2022-08-14T10:50:46.543Z,2.47
2022-08-14T10:53:37.083Z,2.10
2022-08-14T10:56:21.385Z,2.47
2022-08-14T10:59:08.718Z,2.42
2022-08-14T11:01:43.718Z,3.00
2022-08-14T11:04:28.556Z,3.00
2022-08-14T11:07:05.841Z,2.38
2022-08-14T11:09:41.713Z,2.60
2022-08-14T11:12:44.134Z,2.38
2022-08-14T11:17:45.886Z,2.45
2022-08-14T11:20:24.017Z,2.33
2022-08-14T11:22:59.109Z,2.95
2022-08-14T11:25:43.243Z,2.40
2022-08-14T11:28:19.005Z,1.90
2022-08-14T11:30:57.415Z,2.65
2022-08-14T11:33:32.710Z,2.30
2022-08-14T11:36:18.459Z,2.05
2022-08-14T11:38:51.595Z,1.98
2022-08-14T11:41:28.069Z,2.28
2022-08-14T11:44:01.210Z,2.33
2022-08-14T11:46:39.427Z,1.95
2022-08-14T11:49:16.009Z,2.28
2022-08-14T11:51:54.647Z,2.17
2022-08-14T11:54:34.971Z,1.80
2022-08-14T11:57:15.131Z,2.15
2022-08-14T12:00:02.001Z,2.33
2022-08-14T12:03:02.747Z,2.40
2022-08-14T12:05:39.653Z,2.70
2022-08-14T12:08:13.484Z,2.50
2022-08-14T12:10:46.639Z,2.00
2022-08-14T12:13:22.465Z,2.17
2022-08-14T12:16:06.489Z,2.28
2022-08-14T12:18:50.862Z,2.17
2022-08-14T12:21:29.543Z,2.22
2022-08-14T12:24:08.341Z,2.28
2022-08-14T12:26:41.703Z,2.42
2022-08-14T12:29:16.118Z,2.50
2022-08-14T12:31:59.919Z,2.30
2022-08-14T12:34:37.010Z,2.35
2022-08-14T12:37:10.173Z,2.80
2022-08-14T12:39:44.847Z,2.50
2022-08-14T12:42:27.337Z,2.90
2022-08-14T12:45:12.119Z,3.25
2022-08-14T12:50:36.017Z,3.20
2022-08-14T12:53:14.483Z,3.00
2022-08-14T12:56:21.671Z,3.40
2022-08-14T12:58:56.619Z,2.75
2022-08-14T13:02:01.905Z,2.90
2022-08-14T13:04:25.101Z,2.60
2022-08-14T13:07:08.575Z,2.75
2022-08-14T13:09:41.470Z,2.60
2022-08-14T13:12:34.834Z,3.65
2022-08-14T13:15:17.852Z,3.00
2022-08-14T13:17:56.422Z,3.08
2022-08-14T13:20:33.529Z,3.10
2022-08-14T13:23:08.967Z,2.65
2022-08-14T13:25:55.507Z,2.70
2022-08-14T13:28:32.978Z,3.20
2022-08-14T13:31:11.323Z,2.90
2022-08-14T13:33:45.596Z,2.92
2022-08-14T13:36:24.072Z,3.20
2022-08-14T13:39:16.110Z,2.28
2022-08-14T13:41:56.121Z,3.38
2022-08-14T13:44:32.736Z,3.20
2022-08-14T13:47:06.924Z,2.90
2022-08-14T13:49:57.097Z,2.65
2022-08-14T13:52:51.564Z,2.42
2022-08-14T13:55:31.034Z,2.47
2022-08-14T13:58:05.315Z,2.83
2022-08-14T14:00:52.957Z,2.97
2022-08-14T14:03:30.267Z,2.90
2022-08-14T14:06:05.022Z,2.70
2022-08-14T14:08:47.863Z,2.90
2022-08-14T14:11:25.496Z,3.00
2022-08-14T14:14:04.873Z,3.13
2022-08-14T14:16:37.954Z,2.63
2022-08-14T14:19:11.301Z,3.28
2022-08-14T14:21:45.474Z,2.80
2022-08-14T14:24:19.910Z,3.20
2022-08-14T14:26:56.015Z,2.80
2022-08-14T14:29:50.508Z,3.30
2022-08-14T14:32:31.266Z,2.80
2022-08-14T14:35:05.566Z,4.00
2022-08-14T14:37:40.611Z,3.80
2022-08-14T14:40:53.699Z,3.25
2022-08-14T14:43:13.220Z,3.53
2022-08-14T14:45:50.526Z,3.13
2022-08-14T14:48:31.440Z,2.90
2022-08-14T14:51:05.481Z,3.58
2022-08-14T14:53:40.202Z,3.03
2022-08-14T14:56:51.076Z,3.45
2022-08-14T14:59:07.609Z,3.00
2022-08-14T15:01:48.841Z,3.63
2022-08-14T15:04:21.687Z,3.20
2022-08-14T15:06:54.577Z,3.53
2022-08-14T15:09:27.557Z,3.50
2022-08-14T15:12:00.275Z,4.30
2022-08-14T15:14:56.630Z,3.47
2022-08-14T15:17:41.162Z,3.53
2022-08-14T15:20:17.247Z,3.15
2022-08-14T15:23:11.696Z,3.65
2022-08-14T15:25:53.127Z,2.60
2022-08-14T15:28:26.509Z,3.60
2022-08-14T15:31:01.189Z,3.75
2022-08-14T15:34:00.992Z,3.10
2022-08-14T15:36:46.527Z,3.53
2022-08-14T15:39:19.214Z,3.47
2022-08-14T15:41:52.383Z,3.63
2022-08-14T15:44:34.200Z,3.35
2022-08-14T15:47:11.160Z,3.30
2022-08-14T15:49:44.538Z,3.50
2022-08-14T15:52:32.688Z,3.67
2022-08-14T15:55:13.166Z,4.00
2022-08-14T15:58:01.769Z,3.95
2022-08-14T16:00:54.895Z,4.40
2022-08-14T16:03:35.697Z,3.80
2022-08-14T16:06:15.487Z,3.42
2022-08-14T16:08:58.974Z,3.85
2022-08-14T16:14:06.940Z,4.40
2022-08-14T16:16:50.944Z,4.13
2022-08-14T16:19:32.750Z,4.00
2022-08-14T16:22:58.639Z,3.90
2022-08-14T16:25:18.205Z,3.95
2022-08-14T16:27:52.337Z,3.40
2022-08-14T16:30:27.866Z,3.50
2022-08-14T16:33:02.159Z,4.82
2022-08-14T16:35:43.100Z,4.80
2022-08-14T16:38:46.339Z,7.13
2022-08-14T16:41:26.309Z,6.75
2022-08-14T16:44:02.405Z,5.80
2022-08-14T16:46:42.926Z,4.35
2022-08-14T16:49:17.969Z,3.67
2022-08-14T16:51:54.130Z,3.50
2022-08-14T16:54:35.459Z,3.25
2022-08-14T16:57:22.342Z,3.85
2022-08-14T16:59:59.250Z,3.38
2022-08-14T17:02:44.961Z,3.30
2022-08-14T17:05:20.677Z,3.42
2022-08-14T17:08:32.737Z,3.60
2022-08-14T17:11:10.237Z,3.55
2022-08-14T17:13:58.754Z,3.53
2022-08-14T17:16:37.359Z,3.42
2022-08-14T17:19:14.034Z,3.90
2022-08-14T17:21:50.514Z,3.95
2022-08-14T17:24:56.400Z,4.05
2022-08-14T17:27:23.183Z,3.38
2022-08-14T17:29:57.868Z,3.45
2022-08-14T17:32:56.010Z,3.85
2022-08-14T17:35:57.566Z,4.00
2022-08-14T17:38:39.412Z,3.90
2022-08-14T17:41:32.678Z,3.78
2022-08-14T17:44:21.832Z,3.20
2022-08-14T17:46:58.572Z,3.67
2022-08-14T17:49:40.508Z,3.40
2022-08-14T17:52:17.636Z,3.65
2022-08-14T17:55:00.594Z,4.18
2022-08-14T17:57:40.869Z,4.65
2022-08-14T18:00:17.435Z,3.85
2022-08-14T18:02:52.106Z,3.63
2022-08-14T18:06:09.947Z,4.10
2022-08-14T18:08:33.654Z,3.80
2022-08-14T18:11:16.811Z,3.58
2022-08-14T18:13:52.754Z,4.13
2022-08-14T18:16:28.036Z,4.03
2022-08-14T18:19:04.348Z,4.38
2022-08-14T18:21:42.679Z,3.88
2022-08-14T18:24:31.785Z,4.18
2022-08-14T18:27:06.911Z,4.13
2022-08-14T18:29:55.371Z,4.15
2022-08-14T18:32:47.252Z,4.10
2022-08-14T18:35:56.890Z,4.65
2022-08-14T18:38:45.887Z,3.85
2022-08-14T18:44:11.411Z,4.25
2022-08-14T18:47:23.635Z,3.80
2022-08-14T18:50:26.911Z,4.22
2022-08-14T18:53:07.301Z,4.88
2022-08-14T18:55:53.372Z,4.65
2022-08-14T18:58:31.492Z,4.65
2022-08-14T19:01:06.908Z,4.90
2022-08-14T19:03:50.254Z,4.65
2022-08-14T19:06:50.105Z,4.75
2022-08-14T19:09:58.749Z,4.18
2022-08-14T19:12:57.619Z,4.60
2022-08-14T19:15:36.002Z,4.57
2022-08-14T19:18:30.696Z,5.07
2022-08-14T19:21:27.384Z,5.88
2022-08-14T19:24:27.354Z,8.10
2022-08-14T19:27:23.722Z,5.70
2022-08-14T19:30:23.165Z,5.97
2022-08-14T19:33:02.615Z,5.68
2022-08-14T19:35:49.964Z,5.30
2022-08-14T19:38:51.951Z,6.32
2022-08-14T19:41:29.540Z,5.30
2022-08-14T19:44:11.620Z,5.72
2022-08-14T19:47:01.445Z,5.00
2022-08-14T19:50:08.442Z,5.13
2022-08-14T19:52:37.036Z,5.45
2022-08-14T19:55:17.896Z,5.90
2022-08-14T19:57:58.147Z,5.55
2022-08-14T20:00:31.736Z,5.25
2022-08-14T20:03:10.222Z,5.50
2022-08-14T20:05:46.245Z,5.15
2022-08-14T20:09:05.019Z,5.07
2022-08-14T20:12:00.798Z,4.93
2022-08-14T20:14:29.383Z,4.95
2022-08-14T20:17:06.572Z,5.53
2022-08-14T20:19:41.515Z,6.43
2022-08-14T20:22:35.678Z,5.75
2022-08-14T20:25:16.197Z,5.05
2022-08-14T20:27:58.821Z,5.72
2022-08-14T20:30:33.514Z,6.65
2022-08-14T20:33:11.241Z,7.38
2022-08-14T20:35:49.192Z,7.95
2022-08-14T20:38:31.458Z,9.40
2022-08-14T20:41:10.767Z,7.13
2022-08-14T20:44:06.531Z,6.22
2022-08-14T20:46:42.402Z,5.53
2022-08-14T20:49:18.573Z,5.43
2022-08-14T20:51:59.489Z,5.40
2022-08-14T20:54:36.258Z,6.03
2022-08-14T20:57:11.981Z,5.88
2022-08-14T20:59:53.083Z,6.18
2022-08-14T21:02:46.497Z,6.93
2022-08-14T21:05:34.004Z,7.03
2022-08-14T21:08:22.167Z,7.35
2022-08-14T21:10:58.784Z,7.20
2022-08-14T21:14:20.717Z,8.50
2022-08-14T21:16:34.990Z,7.50
2022-08-14T21:19:16.310Z,6.75
2022-08-14T21:21:55.019Z,6.70
2022-08-14T21:24:40.130Z,6.45
2022-08-14T21:27:23.027Z,6.75
2022-08-14T21:29:56.566Z,6.32
2022-08-14T21:32:47.038Z,6.32
2022-08-14T21:35:26.027Z,6.47
2022-08-14T21:37:58.913Z,6.43
2022-08-14T21:40:42.045Z,5.80
2022-08-14T21:43:21.175Z,6.55
2022-08-14T21:45:57.565Z,5.88
2022-08-14T21:48:34.135Z,5.80
2022-08-14T21:51:53.362Z,5.60
2022-08-14T21:54:04.154Z,5.15
2022-08-14T21:56:56.797Z,5.40
2022-08-14T21:59:34.159Z,5.60
2022-08-14T22:02:09.483Z,5.07
2022-08-14T22:05:03.396Z,5.47
2022-08-14T22:07:45.738Z,5.10
2022-08-14T22:10:22.934Z,5.30
2022-08-14T22:13:00.711Z,5.68
2022-08-14T22:15:35.478Z,4.93
2022-08-14T22:18:12.260Z,5.57
2022-08-14T22:20:56.809Z,5.22
2022-08-14T22:23:31.126Z,4.85
2022-08-14T22:26:07.471Z,5.03
2022-08-14T22:28:44.730Z,5.13
2022-08-14T22:31:22.298Z,4.50
2022-08-14T22:33:58.089Z,4.95
2022-08-14T22:36:50.570Z,5.10
2022-08-14T22:40:16.774Z,4.90
2022-08-14T22:42:22.673Z,4.97
2022-08-14T22:44:56.739Z,4.68
2022-08-14T22:47:34.614Z,4.95
2022-08-14T22:50:28.851Z,5.00
2022-08-14T22:53:05.946Z,4.50
2022-08-14T22:55:41.472Z,4.07
2022-08-14T22:58:17.186Z,4.75
2022-08-14T23:00:50.335Z,4.47
2022-08-14T23:03:23.818Z,4.53
2022-08-14T23:05:57.260Z,4.50
2022-08-14T23:08:57.534Z,4.75
2022-08-14T23:11:26.195Z,4.50
2022-08-14T23:14:02.374Z,4.85
2022-08-14T23:16:37.878Z,4.35
2022-08-14T23:19:11.631Z,4.05
2022-08-14T23:21:46.374Z,4.28
2022-08-14T23:24:27.054Z,4.28
2022-08-14T23:27:01.802Z,4.70
2022-08-14T23:29:42.177Z,4.35
2022-08-14T23:32:18.818Z,4.20
2022-08-14T23:34:54.371Z,5.00
2022-08-14T23:37:27.639Z,4.10
2022-08-14T23:40:02.382Z,4.47
2022-08-14T23:42:51.159Z,4.78
2022-08-14T23:45:36.910Z,4.80
2022-08-14T23:48:12.422Z,5.00
2022-08-14T23:50:46.356Z,4.43
2022-08-14T23:53:28.557Z,4.45
2022-08-14T23:56:17.020Z,4.47
2022-08-14T23:58:52.803Z,4.05
